createdAt,value
2022-10-11T00:01:05.564Z,91950.22
2022-10-11T00:03:34.087Z,91962.88
2022-10-11T00:06:04.840Z,91951.47
2022-10-11T00:08:34.885Z,91952.25
2022-10-11T00:11:06.153Z,91952.97
2022-10-11T00:13:34.669Z,91963.72
2022-10-11T00:16:08.430Z,91971.13
2022-10-11T00:18:37.713Z,91980.00
2022-10-11T00:21:10.642Z,91980.66
2022-10-11T00:23:39.758Z,91993.59
2022-10-11T00:26:10.613Z,91994.66
2022-10-11T00:28:39.575Z,92012.72
2022-10-11T00:31:14.858Z,92004.94
2022-10-11T00:33:43.370Z,92018.81
2022-10-11T00:36:15.043Z,92017.66
2022-10-11T00:38:43.575Z,92024.56
2022-10-11T00:41:12.460Z,92018.84
2022-10-11T00:43:41.377Z,92024.34
2022-10-11T00:46:31.337Z,92039.28
2022-10-11T00:49:11.045Z,92048.09
2022-10-11T00:51:52.331Z,92045.22
2022-10-11T00:54:26.978Z,92053.44
2022-10-11T00:57:01.375Z,92048.31
2022-10-11T00:59:33.191Z,92053.72
2022-10-11T01:02:01.860Z,92054.81
2022-10-11T01:04:30.024Z,92066.94
2022-10-11T01:06:59.542Z,92064.31
2022-10-11T01:09:28.720Z,92075.44
2022-10-11T01:12:02.672Z,92074.66
2022-10-11T01:15:08.363Z,92077.59
2022-10-11T01:17:57.858Z,92077.38
2022-10-11T01:20:58.034Z,92085.97
2022-10-11T01:24:08.164Z,92090.25
2022-10-11T01:26:36.771Z,92100.59
2022-10-11T01:29:39.939Z,92103.63
2022-10-11T01:32:26.059Z,92106.03
2022-10-11T01:35:14.593Z,92124.38
2022-10-11T01:37:53.459Z,92129.22
2022-10-11T01:40:37.038Z,92147.44
2022-10-11T01:43:07.371Z,92153.63
2022-10-11T01:45:37.092Z,92154.09
2022-10-11T01:48:12.125Z,92186.72
2022-10-11T01:50:52.294Z,92195.31
2022-10-11T01:53:26.539Z,92207.88
2022-10-11T01:56:19.307Z,92213.53
2022-10-11T01:58:53.609Z,92217.56
2022-10-11T02:01:40.381Z,92219.78
2022-10-11T02:04:20.847Z,92219.84
2022-10-11T02:07:21.898Z,92213.53
2022-10-11T02:10:05.129Z,92208.00
2022-10-11T02:12:39.172Z,92215.94
2022-10-11T02:15:11.116Z,92210.91
2022-10-11T02:17:49.315Z,92224.66
2022-10-11T02:20:22.862Z,92224.94
2022-10-11T02:22:54.939Z,92227.56
2022-10-11T02:25:29.064Z,92241.31
2022-10-11T02:28:02.477Z,92260.06
2022-10-11T02:30:32.718Z,92287.78
2022-10-11T02:33:07.316Z,92297.78
2022-10-11T02:35:40.783Z,92311.47
2022-10-11T02:38:26.248Z,92322.53
2022-10-11T02:41:14.308Z,92330.44
2022-10-11T02:43:49.375Z,92328.22
2022-10-11T02:46:18.597Z,92327.13
2022-10-11T02:48:47.187Z,92333.94
2022-10-11T02:51:16.379Z,92332.31
2022-10-11T02:53:44.998Z,92333.25
2022-10-11T02:56:13.595Z,92352.31
2022-10-11T02:58:42.180Z,92361.16
2022-10-11T03:01:10.871Z,92387.38
2022-10-11T03:03:39.420Z,92373.75
2022-10-11T03:06:08.326Z,92385.09
2022-10-11T03:08:37.160Z,92386.25
2022-10-11T03:11:05.956Z,92397.03
2022-10-11T03:13:34.548Z,92388.97
2022-10-11T03:16:03.887Z,92402.22
2022-10-11T03:18:32.939Z,92415.03
2022-10-11T03:21:01.841Z,92421.31
2022-10-11T03:23:30.915Z,92440.31
2022-10-11T03:25:59.469Z,92434.22
2022-10-11T03:28:28.087Z,92436.38
2022-10-11T03:30:56.673Z,92444.47
2022-10-11T03:33:25.064Z,92446.97
2022-10-11T03:35:53.570Z,92454.13
2022-10-11T03:38:23.874Z,92480.72
2022-10-11T03:40:52.954Z,92477.16
2022-10-11T03:43:21.752Z,92483.16
2022-10-11T03:45:50.135Z,92479.25
2022-10-11T03:48:18.625Z,92487.69
2022-10-11T03:50:47.100Z,92508.16
2022-10-11T03:53:15.718Z,92505.13
2022-10-11T03:55:47.216Z,92497.31
2022-10-11T03:58:15.807Z,92506.81
2022-10-11T04:00:44.304Z,92509.88
2022-10-11T04:03:12.884Z,92507.59
2022-10-11T04:05:41.214Z,92500.69
2022-10-11T04:08:12.072Z,92505.78
2022-10-11T04:10:41.703Z,92505.69
2022-10-11T04:13:12.500Z,92505.94
2022-10-11T04:15:42.708Z,92510.88
2022-10-11T04:18:11.278Z,92511.69
2022-10-11T04:20:40.268Z,92512.63
2022-10-11T04:23:08.941Z,92521.47
2022-10-11T04:25:40.544Z,92518.44
2022-10-11T04:28:09.999Z,92520.44
2022-10-11T04:30:38.634Z,92518.19
2022-10-11T04:33:07.102Z,92524.84
2022-10-11T04:35:35.872Z,92525.00
2022-10-11T04:38:04.350Z,92523.53
2022-10-11T04:40:33.204Z,92525.19
2022-10-11T04:43:01.833Z,92512.09
2022-10-11T04:45:30.441Z,92520.44
2022-10-11T04:47:58.994Z,92522.19
2022-10-11T04:50:27.554Z,92527.53
2022-10-11T04:52:56.079Z,92534.84
2022-10-11T04:55:24.552Z,92521.84
2022-10-11T04:57:53.165Z,92526.75
2022-10-11T05:00:22.144Z,92537.97
2022-10-11T05:02:50.656Z,92535.34
2022-10-11T05:05:19.048Z,92530.78
2022-10-11T05:07:47.563Z,92543.44
2022-10-11T05:10:16.301Z,92542.66
2022-10-11T05:12:44.873Z,92542.41
2022-10-11T05:15:13.284Z,92538.19
2022-10-11T05:17:41.765Z,92536.56
2022-10-11T05:20:10.936Z,92549.09
2022-10-11T05:22:39.695Z,92543.28
2022-10-11T05:25:08.109Z,92543.19
2022-10-11T05:27:39.103Z,92542.38
2022-10-11T05:30:07.760Z,92549.00
2022-10-11T05:32:36.295Z,92538.06
2022-10-11T05:35:04.859Z,92548.38
2022-10-11T05:37:33.487Z,92537.78
2022-10-11T05:40:02.058Z,92554.00
2022-10-11T05:42:30.476Z,92550.34
2022-10-11T05:44:58.992Z,92550.47
2022-10-11T05:47:27.568Z,92542.38
2022-10-11T05:49:56.081Z,92561.09
2022-10-11T05:52:24.559Z,92568.72
2022-10-11T05:54:53.648Z,92564.28
2022-10-11T05:57:22.091Z,92557.31
2022-10-11T05:59:50.626Z,92562.22
2022-10-11T06:02:19.137Z,92571.59
2022-10-11T06:04:47.886Z,92568.50
2022-10-11T06:07:16.349Z,92575.34
2022-10-11T06:09:44.828Z,92573.28
2022-10-11T06:12:13.416Z,92571.69
2022-10-11T06:14:41.883Z,92580.59
2022-10-11T06:17:10.416Z,92568.38
2022-10-11T06:19:39.050Z,92575.56
2022-10-11T06:22:07.527Z,92571.25
2022-10-11T06:24:36.079Z,92578.31
2022-10-11T06:27:04.658Z,92573.16
2022-10-11T06:29:33.189Z,92577.03
2022-10-11T06:32:01.748Z,92579.44
2022-10-11T06:34:30.381Z,92578.06
2022-10-11T06:36:58.920Z,92576.56
2022-10-11T06:39:27.479Z,92587.19
2022-10-11T06:41:55.956Z,92582.97
2022-10-11T06:44:24.424Z,92571.66
2022-10-11T06:46:52.930Z,92584.09
2022-10-11T06:49:23.449Z,92583.84
2022-10-11T06:51:52.699Z,92585.41
2022-10-11T06:54:21.401Z,92578.66
2022-10-11T06:56:49.851Z,92580.19
2022-10-11T06:59:18.449Z,92580.44
2022-10-11T07:01:47.016Z,92584.41
2022-10-11T07:04:15.557Z,92578.34
2022-10-11T07:06:44.110Z,92585.72
2022-10-11T07:09:12.841Z,92581.28
2022-10-11T07:11:41.353Z,92578.53
2022-10-11T07:14:11.115Z,92587.81
2022-10-11T07:16:39.762Z,92576.75
2022-10-11T07:19:08.904Z,92582.94
2022-10-11T07:21:38.244Z,92579.81
2022-10-11T07:24:07.216Z,92570.09
2022-10-11T07:26:38.859Z,92572.56
2022-10-11T07:29:12.257Z,92569.97
2022-10-11T07:31:42.732Z,92575.06
2022-10-11T07:34:12.367Z,92575.78
2022-10-11T07:36:40.945Z,92566.81
2022-10-11T07:39:10.301Z,92570.63
2022-10-11T07:41:45.392Z,92579.28
2022-10-11T07:44:14.946Z,92571.03
2022-10-11T07:46:42.997Z,92572.38
2022-10-11T07:49:11.134Z,92575.13
2022-10-11T07:51:39.625Z,92576.81
2022-10-11T07:54:08.194Z,92575.34
2022-10-11T07:56:38.176Z,92574.44
2022-10-11T07:59:07.050Z,92580.72
2022-10-11T08:01:35.856Z,92580.34
2022-10-11T08:04:04.290Z,92587.06
2022-10-11T08:06:33.818Z,92580.66
2022-10-11T08:09:03.056Z,92583.28
2022-10-11T08:11:37.250Z,92593.22
2022-10-11T08:14:10.186Z,92582.47
2022-10-11T08:16:40.426Z,92599.50
2022-10-11T08:19:09.263Z,92603.56
2022-10-11T08:21:38.111Z,92600.13
2022-10-11T08:24:07.934Z,92611.66
2022-10-11T08:26:36.644Z,92610.06
2022-10-11T08:29:06.479Z,92607.66
2022-10-11T08:31:36.177Z,92615.47
2022-10-11T08:34:04.734Z,92612.09
2022-10-11T08:36:33.618Z,92622.41
2022-10-11T08:39:02.791Z,92619.16
2022-10-11T08:41:51.490Z,92623.88
2022-10-11T08:45:09.501Z,92622.97
2022-10-11T08:47:45.984Z,92624.00
2022-10-11T08:50:23.850Z,92631.38
2022-10-11T08:53:07.433Z,92635.47
2022-10-11T08:55:48.662Z,92629.63
2022-10-11T08:58:23.526Z,92626.03
2022-10-11T09:00:56.325Z,92641.19
2022-10-11T09:03:39.598Z,92636.16
2022-10-11T09:06:14.587Z,92648.53
2022-10-11T09:08:58.733Z,92643.50
2022-10-11T09:11:46.152Z,92641.97
2022-10-11T09:14:46.299Z,92642.63
2022-10-11T09:17:35.824Z,92638.88
2022-10-11T09:20:41.616Z,92646.94
2022-10-11T09:23:35.951Z,92646.53
2022-10-11T09:26:09.639Z,92646.47
2022-10-11T09:29:09.732Z,92644.22
2022-10-11T09:31:38.309Z,92649.84
2022-10-11T09:34:15.916Z,92645.72
2022-10-11T09:37:11.841Z,92648.16
2022-10-11T09:39:47.302Z,92650.09
2022-10-11T09:42:15.865Z,92644.25
2022-10-11T09:44:49.351Z,92649.53
2022-10-11T09:47:25.611Z,92660.94
2022-10-11T09:50:05.513Z,92654.16
2022-10-11T09:52:35.232Z,92658.59
2022-10-11T09:55:04.743Z,92664.09
2022-10-11T09:57:44.096Z,92667.72
2022-10-11T10:00:33.567Z,92667.56
2022-10-11T10:03:05.922Z,92672.97
2022-10-11T10:05:39.771Z,92670.91
2022-10-11T10:08:11.050Z,92681.06
2022-10-11T10:11:10.225Z,92679.78
2022-10-11T10:13:42.697Z,92676.81
2022-10-11T10:16:27.048Z,92675.94
2022-10-11T10:19:08.781Z,92686.72
2022-10-11T10:21:51.251Z,92692.31
2022-10-11T10:24:43.871Z,92695.88
2022-10-11T10:27:12.586Z,92701.69
2022-10-11T10:29:41.192Z,92696.94
2022-10-11T10:32:28.117Z,92707.31
2022-10-11T10:35:28.700Z,92712.56
2022-10-11T10:38:19.790Z,92716.69
2022-10-11T10:40:53.907Z,92715.66
2022-10-11T10:43:27.024Z,92719.66
2022-10-11T10:46:47.713Z,92719.69
2022-10-11T10:52:40.777Z,92729.72
2022-10-11T10:55:36.464Z,92728.38
2022-10-11T10:58:19.902Z,92742.47
2022-10-11T11:00:51.834Z,92751.88
2022-10-11T11:03:37.168Z,92745.91
2022-10-11T11:06:13.788Z,92748.94
2022-10-11T11:08:59.227Z,92754.56
2022-10-11T11:11:49.247Z,92749.06
2022-10-11T11:14:32.059Z,92756.81
2022-10-11T11:17:09.427Z,92755.69
2022-10-11T11:20:05.897Z,92761.41
2022-10-11T11:22:54.981Z,92765.63
2022-10-11T11:25:58.748Z,92764.13
2022-10-11T11:28:51.397Z,92766.41
2022-10-11T11:31:50.602Z,92766.97
2022-10-11T11:34:33.479Z,92766.41
2022-10-11T11:37:04.851Z,92771.91
2022-10-11T11:39:40.669Z,92771.81
2022-10-11T11:42:30.558Z,92773.19
2022-10-11T11:45:14.480Z,92769.06
2022-10-11T11:47:46.951Z,92761.66
2022-10-11T11:50:29.540Z,92770.94
2022-10-11T11:53:08.905Z,92772.66
2022-10-11T11:55:53.761Z,92768.31
2022-10-11T11:58:40.464Z,92779.63
2022-10-11T12:01:40.344Z,92781.13
2022-10-11T12:04:24.874Z,92787.75
2022-10-11T12:07:17.958Z,92784.56
2022-10-11T12:09:52.133Z,92789.94
2022-10-11T12:12:37.388Z,92792.22
2022-10-11T12:15:12.033Z,92789.81
2022-10-11T12:17:58.807Z,92790.03
2022-10-11T12:20:39.294Z,92783.19
2022-10-11T12:23:30.995Z,92785.47
2022-10-11T12:26:29.589Z,92786.63
2022-10-11T12:29:28.411Z,92787.31
2022-10-11T12:32:00.332Z,92784.34
2022-10-11T12:34:45.443Z,92782.97
2022-10-11T12:37:19.909Z,92779.75
2022-10-11T12:39:55.944Z,92779.19
2022-10-11T12:42:32.656Z,92780.34
2022-10-11T12:45:16.132Z,92784.69
2022-10-11T12:48:36.018Z,92779.66
2022-10-11T12:51:24.995Z,92784.00
2022-10-11T12:54:29.956Z,92780.91
2022-10-11T12:57:21.841Z,92781.81
2022-10-11T12:59:51.836Z,92778.97
2022-10-11T13:02:45.474Z,92783.41
2022-10-11T13:05:31.403Z,92783.53
2022-10-11T13:08:04.208Z,92788.09
2022-10-11T13:10:41.982Z,92791.41
2022-10-11T13:13:26.257Z,92794.50
2022-10-11T13:15:57.685Z,92789.91
2022-10-11T13:18:27.676Z,92798.84
2022-10-11T13:20:56.611Z,92794.16
2022-10-11T13:23:29.307Z,92803.66
2022-10-11T13:25:58.147Z,92807.28
2022-10-11T13:28:26.663Z,92809.56
2022-10-11T13:30:57.503Z,92809.69
2022-10-11T13:33:34.947Z,92811.72
2022-10-11T13:36:06.545Z,92811.84
2022-10-11T13:38:37.784Z,92806.81
2022-10-11T13:41:09.090Z,92820.06
2022-10-11T13:43:38.644Z,92821.75
2022-10-11T13:46:07.734Z,92826.56
2022-10-11T13:48:42.428Z,92816.16
2022-10-11T13:51:34.182Z,92822.44
2022-10-11T13:54:04.408Z,92823.00
2022-10-11T13:56:37.931Z,92829.25
2022-10-11T13:59:06.656Z,92831.72
2022-10-11T14:01:45.584Z,92834.09
2022-10-11T14:04:19.446Z,92843.88
2022-10-11T14:06:47.273Z,92841.56
2022-10-11T14:09:24.145Z,92838.06
2022-10-11T14:11:54.552Z,92837.06
2022-10-11T14:14:32.331Z,92845.59
2022-10-11T14:17:17.189Z,92842.84
2022-10-11T14:19:48.500Z,92847.19
2022-10-11T14:22:19.650Z,92849.81
2022-10-11T14:24:51.185Z,92847.34
2022-10-11T14:27:24.731Z,92853.84
2022-10-11T14:30:20.225Z,92855.22
2022-10-11T14:32:43.601Z,92861.19
2022-10-11T14:35:26.912Z,92863.28
2022-10-11T14:37:55.681Z,92862.69
2022-10-11T14:40:27.226Z,92861.34
2022-10-11T14:42:56.333Z,92866.09
2022-10-11T14:45:25.569Z,92863.06
2022-10-11T14:47:53.926Z,92866.88
2022-10-11T14:50:54.442Z,92861.41
2022-10-11T14:53:23.603Z,92862.19
2022-10-11T14:55:52.075Z,92863.56
2022-10-11T14:58:21.106Z,92864.50
2022-10-11T15:00:49.669Z,92866.56
2022-10-11T15:03:18.241Z,92873.47
2022-10-11T15:05:46.731Z,92879.06
2022-10-11T15:08:16.070Z,92873.25
2022-10-11T15:10:44.493Z,92881.38
2022-10-11T15:13:13.085Z,92885.41
2022-10-11T15:15:42.907Z,92883.69
2022-10-11T15:18:17.827Z,92886.19
2022-10-11T15:20:47.591Z,92888.72
2022-10-11T15:23:16.264Z,92886.66
2022-10-11T15:25:47.619Z,92889.03
2022-10-11T15:28:36.344Z,92890.97
2022-10-11T15:31:04.925Z,92891.00
2022-10-11T15:33:33.376Z,92900.25
2022-10-11T15:36:01.823Z,92897.38
2022-10-11T15:38:30.349Z,92902.88
2022-10-11T15:41:00.583Z,92895.19
2022-10-11T15:43:28.880Z,92903.53
2022-10-11T15:45:58.965Z,92907.53
2022-10-11T15:48:28.549Z,92906.13
2022-10-11T15:50:57.305Z,92907.03
2022-10-11T15:53:29.859Z,92901.63
2022-10-11T15:56:07.117Z,92914.44
2022-10-11T15:58:38.803Z,92909.13
2022-10-11T16:01:09.843Z,92916.91
2022-10-11T16:03:38.532Z,92914.25
2022-10-11T16:06:07.563Z,92921.09
2022-10-11T16:08:36.599Z,92918.41
2022-10-11T16:11:06.666Z,92919.28
2022-10-11T16:13:35.783Z,92919.59
2022-10-11T16:16:06.126Z,92916.34
2022-10-11T16:18:35.833Z,92923.06
2022-10-11T16:21:12.331Z,92917.63
2022-10-11T16:23:41.258Z,92928.09
2022-10-11T16:26:13.331Z,92922.66
2022-10-11T16:28:43.183Z,92927.47
2022-10-11T16:31:15.954Z,92934.19
2022-10-11T16:33:46.968Z,92937.22
2022-10-11T16:36:36.671Z,92936.50
2022-10-11T16:39:13.523Z,92935.47
2022-10-11T16:41:43.187Z,92944.25
2022-10-11T16:44:16.378Z,92939.91
2022-10-11T16:46:49.455Z,92951.91
2022-10-11T16:49:20.871Z,92955.66
2022-10-11T16:51:49.710Z,92943.38
2022-10-11T16:54:20.660Z,92950.91
2022-10-11T16:56:50.419Z,92947.22
2022-10-11T16:59:19.469Z,92948.66
2022-10-11T17:01:47.940Z,92945.75
2022-10-11T17:04:17.092Z,92947.47
2022-10-11T17:06:46.038Z,92949.44
2022-10-11T17:09:14.816Z,92943.16
2022-10-11T17:11:43.472Z,92943.72
2022-10-11T17:14:13.632Z,92940.72
2022-10-11T17:16:42.319Z,92951.94
2022-10-11T17:19:13.679Z,92952.19
2022-10-11T17:21:43.240Z,92944.16
2022-10-11T17:24:11.741Z,92946.56
2022-10-11T17:26:40.068Z,92939.56
2022-10-11T17:29:08.553Z,92943.41
2022-10-11T17:31:39.660Z,92944.22
2022-10-11T17:34:08.234Z,92948.84
2022-10-11T17:36:36.839Z,92940.53
2022-10-11T17:39:08.831Z,92940.94
2022-10-11T17:41:37.280Z,92944.88
2022-10-11T17:44:06.489Z,92945.84
2022-10-11T17:46:35.290Z,92950.13
2022-10-11T17:49:07.877Z,92940.19
2022-10-11T17:51:37.743Z,92953.28
2022-10-11T17:54:07.082Z,92942.84
2022-10-11T17:56:38.186Z,92944.50
2022-10-11T17:59:07.495Z,92941.63
2022-10-11T18:01:36.610Z,92948.22
2022-10-11T18:04:07.363Z,92941.78
2022-10-11T18:06:41.324Z,92932.28
2022-10-11T18:09:09.831Z,92939.38
2022-10-11T18:11:38.577Z,92939.22
2022-10-11T18:14:06.947Z,92930.78
2022-10-11T18:16:36.522Z,92926.91
2022-10-11T18:19:09.043Z,92928.81
2022-10-11T18:21:39.146Z,92932.13
2022-10-11T18:24:19.065Z,92925.91
2022-10-11T18:26:48.458Z,92926.81
2022-10-11T18:29:17.472Z,92923.19
2022-10-11T18:31:46.031Z,92920.00
2022-10-11T18:34:15.495Z,92914.38
2022-10-11T18:36:44.458Z,92919.44
2022-10-11T18:39:16.084Z,92905.88
2022-10-11T18:41:45.469Z,92914.16
2022-10-11T18:44:16.822Z,92918.09
2022-10-11T18:46:46.280Z,92917.25
2022-10-11T18:49:15.082Z,92923.56
2022-10-11T18:51:44.112Z,92918.03
2022-10-11T18:54:20.145Z,92915.63
2022-10-11T18:56:50.260Z,92914.47
2022-10-11T18:59:19.280Z,92909.94
2022-10-11T19:01:49.248Z,92914.19
2022-10-11T19:04:17.808Z,92904.06
2022-10-11T19:06:51.808Z,92901.03
2022-10-11T19:09:23.605Z,92909.25
2022-10-11T19:11:54.186Z,92905.78
2022-10-11T19:14:26.783Z,92889.03
2022-10-11T19:16:56.420Z,92900.75
2022-10-11T19:19:28.303Z,92906.50
2022-10-11T19:21:57.112Z,92907.91
2022-10-11T19:24:27.956Z,92906.91
2022-10-11T19:27:01.368Z,92919.09
2022-10-11T19:29:31.748Z,92910.84
2022-10-11T19:32:02.982Z,92920.31
2022-10-11T19:34:33.009Z,92921.97
2022-10-11T19:37:05.473Z,92917.47
2022-10-11T19:39:34.286Z,92902.53
2022-10-11T19:42:03.024Z,92903.97
2022-10-11T19:44:35.735Z,92905.88
2022-10-11T19:47:07.424Z,92905.78
2022-10-11T19:49:35.975Z,92895.44
2022-10-11T19:52:04.416Z,92901.50
2022-10-11T19:54:33.324Z,92900.22
2022-10-11T19:57:01.931Z,92897.13
2022-10-11T19:59:29.951Z,92908.72
2022-10-11T20:01:58.400Z,92905.78
2022-10-11T20:04:51.689Z,92909.75
2022-10-11T20:07:15.386Z,92907.94
2022-10-11T20:09:43.782Z,92901.28
2022-10-11T20:12:12.278Z,92901.28
2022-10-11T20:14:40.427Z,92906.19
2022-10-11T20:17:08.959Z,92890.59
2022-10-11T20:19:37.541Z,92892.56
2022-10-11T20:22:06.219Z,92890.94
2022-10-11T20:24:35.700Z,92888.34
2022-10-11T20:27:06.538Z,92891.53
2022-10-11T20:29:35.100Z,92898.38
2022-10-11T20:32:03.654Z,92904.50
2022-10-11T20:34:32.218Z,92910.38
2022-10-11T20:37:00.710Z,92898.44
2022-10-11T20:39:29.429Z,92894.19
2022-10-11T20:41:57.857Z,92907.22
2022-10-11T20:44:26.224Z,92925.28
2022-10-11T20:46:54.848Z,92922.59
2022-10-11T20:49:23.849Z,92929.03
2022-10-11T20:51:52.394Z,92930.34
2022-10-11T20:54:20.946Z,92925.84
2022-10-11T20:56:49.416Z,92931.69
2022-10-11T20:59:17.909Z,92920.53
2022-10-11T21:01:46.496Z,92925.84
2022-10-11T21:04:20.437Z,92917.84
2022-10-11T21:06:50.365Z,92937.25
2022-10-11T21:09:19.109Z,92929.25
2022-10-11T21:11:47.883Z,92925.84
2022-10-11T21:14:16.531Z,92920.00
2022-10-11T21:16:45.072Z,92925.53
2022-10-11T21:19:16.451Z,92919.72
2022-10-11T21:21:52.535Z,92931.09
2022-10-11T21:24:22.871Z,92925.28
2022-10-11T21:26:51.489Z,92927.69
2022-10-11T21:29:20.286Z,92918.66
2022-10-11T21:31:48.775Z,92914.94
2022-10-11T21:34:17.113Z,92933.28
2022-10-11T21:36:45.670Z,92925.84
2022-10-11T21:39:17.320Z,92926.88
2022-10-11T21:41:45.785Z,92912.78
2022-10-11T21:44:14.273Z,92911.75
2022-10-11T21:47:05.446Z,92912.28
2022-10-11T21:49:31.334Z,92912.56
2022-10-11T21:51:59.848Z,92912.53
2022-10-11T21:54:28.383Z,92910.41
2022-10-11T21:56:56.866Z,92907.72
2022-10-11T21:59:25.376Z,92917.81
2022-10-11T22:01:56.914Z,92912.22
2022-10-11T22:04:27.865Z,92913.81
2022-10-11T22:06:56.326Z,92931.38
2022-10-11T22:09:24.872Z,92926.56
2022-10-11T22:11:53.411Z,92935.81
2022-10-11T22:14:22.438Z,92931.56
2022-10-11T22:16:50.962Z,92937.94
2022-10-11T22:19:19.599Z,92942.22
2022-10-11T22:21:48.165Z,92943.84
2022-10-11T22:24:17.866Z,92952.59
2022-10-11T22:26:46.418Z,92945.38
2022-10-11T22:29:14.899Z,92962.19
2022-10-11T22:31:43.689Z,92967.41
2022-10-11T22:34:12.229Z,92966.03
2022-10-11T22:36:40.768Z,92961.81
2022-10-11T22:39:09.508Z,92971.44
2022-10-11T22:41:39.212Z,92976.41
2022-10-11T22:44:07.955Z,92968.19
2022-10-11T22:46:36.480Z,92976.38
2022-10-11T22:49:04.859Z,92971.66
2022-10-11T22:51:33.491Z,92985.13
2022-10-11T22:54:01.664Z,92997.88
2022-10-11T22:56:29.636Z,93000.81
2022-10-11T22:58:59.655Z,92993.66
2022-10-11T23:01:28.151Z,93001.09
2022-10-11T23:03:57.800Z,93003.19
2022-10-11T23:06:26.404Z,93002.59
2022-10-11T23:08:54.892Z,93007.88
2022-10-11T23:11:23.524Z,93009.47
2022-10-11T23:13:52.002Z,93021.75
2022-10-11T23:16:20.784Z,93013.03
2022-10-11T23:18:49.323Z,93013.38
2022-10-11T23:21:18.330Z,93014.78
2022-10-11T23:23:46.897Z,93022.75
2022-10-11T23:26:17.730Z,93043.19
2022-10-11T23:28:46.590Z,93036.03
2022-10-11T23:31:17.961Z,93028.31
2022-10-11T23:33:47.758Z,93040.50
2022-10-11T23:36:21.207Z,93027.91
2022-10-11T23:38:54.567Z,93043.72
2022-10-11T23:41:30.822Z,93053.19
2022-10-11T23:43:59.942Z,93054.69
2022-10-11T23:46:28.460Z,93063.44
2022-10-11T23:48:57.137Z,93067.53
2022-10-11T23:51:25.519Z,93078.06
2022-10-11T23:53:54.235Z,93077.13
2022-10-11T23:56:22.854Z,93056.38
2022-10-11T23:58:50.850Z,93048.66
